createdAt,value
2023-08-01T00:02:24.981Z,98529.00
2023-08-01T00:04:51.986Z,98550.66
2023-08-01T00:07:18.901Z,98568.84
2023-08-01T00:09:45.861Z,98590.97
2023-08-01T00:12:13.074Z,98505.88
2023-08-01T00:14:40.049Z,98425.41
2023-08-01T00:17:07.150Z,98547.38
2023-08-01T00:19:34.260Z,98600.50
2023-08-01T00:22:01.130Z,98524.72
2023-08-01T00:24:28.188Z,98607.09
2023-08-01T00:26:58.026Z,98502.16
2023-08-01T00:29:25.169Z,98593.97
2023-08-01T00:31:52.257Z,98588.72
2023-08-01T00:34:19.318Z,98595.28
2023-08-01T00:36:46.338Z,98557.22
2023-08-01T00:39:13.447Z,98576.28
2023-08-01T00:41:40.568Z,98453.50
2023-08-01T00:44:07.545Z,98530.50
2023-08-01T00:46:34.700Z,98585.47
2023-08-01T00:49:01.880Z,98585.81
2023-08-01T00:51:30.391Z,98494.31
2023-08-01T00:53:58.021Z,98504.97
2023-08-01T00:56:25.181Z,98577.28
2023-08-01T00:58:52.082Z,98565.28
2023-08-01T01:01:19.288Z,98555.44
2023-08-01T01:03:46.549Z,98398.53
2023-08-01T01:06:46.229Z,98498.53
2023-08-01T01:09:21.334Z,98570.38
2023-08-01T01:11:49.343Z,98507.44
2023-08-01T01:14:16.312Z,98563.66
2023-08-01T01:16:43.518Z,98570.88
2023-08-01T01:19:10.759Z,98572.03
2023-08-01T01:24:27.345Z,98520.09
2023-08-01T01:26:55.746Z,98595.38
2023-08-01T01:29:24.728Z,98534.19
2023-08-01T01:31:51.780Z,98410.06
2023-08-01T01:34:19.971Z,98500.56
2023-08-01T01:36:46.872Z,98445.50
2023-08-01T01:39:13.788Z,98577.63
2023-08-01T01:41:40.612Z,98580.91
2023-08-01T01:44:07.599Z,98517.78
2023-08-01T01:46:34.451Z,98570.88
2023-08-01T01:49:01.220Z,98528.63
2023-08-01T01:51:28.976Z,98483.00
2023-08-01T01:53:55.816Z,98573.03
2023-08-01T01:56:23.545Z,98508.91
2023-08-01T01:58:50.531Z,98427.75
2023-08-01T02:01:17.518Z,98574.19
2023-08-01T02:03:44.506Z,98543.22
2023-08-01T02:06:11.734Z,98557.94
2023-08-01T02:08:38.453Z,98535.31
2023-08-01T02:11:05.729Z,98561.72
2023-08-01T02:13:35.255Z,98429.22
2023-08-01T02:16:02.666Z,98554.97
2023-08-01T02:18:30.337Z,98531.72
2023-08-01T02:20:57.128Z,98556.66
2023-08-01T02:23:23.953Z,98557.81
2023-08-01T02:25:50.861Z,98569.97
2023-08-01T02:28:17.828Z,98554.72
2023-08-01T02:30:45.367Z,98556.03
2023-08-01T02:33:12.098Z,98503.72
2023-08-01T02:35:38.976Z,98496.69
2023-08-01T02:38:06.027Z,98530.25
2023-08-01T02:40:33.302Z,98525.19
2023-08-01T02:43:00.172Z,98482.25
2023-08-01T02:45:26.950Z,98541.94
2023-08-01T02:47:55.183Z,98334.38
2023-08-01T02:50:23.339Z,98560.13
2023-08-01T02:52:50.066Z,98453.53
2023-08-01T02:55:17.076Z,98570.31
2023-08-01T02:57:44.785Z,98548.38
2023-08-01T03:00:12.600Z,98560.81
2023-08-01T03:02:40.639Z,98561.97
2023-08-01T03:05:09.006Z,98477.78
2023-08-01T03:07:35.984Z,98484.69
2023-08-01T03:10:03.445Z,98475.97
2023-08-01T03:12:30.578Z,98559.81
2023-08-01T03:14:57.319Z,98527.97
2023-08-01T03:17:24.090Z,98516.38
2023-08-01T03:19:51.287Z,98488.31
2023-08-01T03:22:18.520Z,98561.94
2023-08-01T03:24:45.276Z,98520.59
2023-08-01T03:27:12.129Z,98566.38
2023-08-01T03:29:39.379Z,98539.66
2023-08-01T03:32:06.604Z,98568.03
2023-08-01T03:34:33.582Z,98527.50
2023-08-01T03:37:00.337Z,98562.78
2023-08-01T03:39:27.191Z,98571.81
2023-08-01T03:41:53.969Z,98535.06
2023-08-01T03:44:20.762Z,98568.50
2023-08-01T03:46:48.684Z,98466.63
2023-08-01T03:49:15.523Z,98575.41
2023-08-01T03:51:42.428Z,98500.78
2023-08-01T03:54:13.805Z,98569.44
2023-08-01T03:56:44.517Z,98578.47
2023-08-01T03:59:14.041Z,98574.34
2023-08-01T04:01:41.446Z,98565.47
2023-08-01T04:04:09.703Z,98573.53
2023-08-01T04:06:36.576Z,98560.56
2023-08-01T04:09:03.479Z,98487.81
2023-08-01T04:11:31.094Z,98551.38
2023-08-01T04:13:57.993Z,98455.97
2023-08-01T04:16:24.762Z,98565.28
2023-08-01T04:18:51.633Z,98537.22
2023-08-01T04:21:19.652Z,98506.56
2023-08-01T04:23:46.630Z,98512.97
2023-08-01T04:26:13.395Z,98561.34
2023-08-01T04:28:40.548Z,98454.66
2023-08-01T04:31:07.339Z,98502.69
2023-08-01T04:33:34.101Z,98497.75
2023-08-01T04:36:00.890Z,98516.72
2023-08-01T04:38:27.726Z,98515.19
2023-08-01T04:40:54.678Z,98565.22
2023-08-01T04:43:21.484Z,98503.69
2023-08-01T04:45:48.341Z,98559.72
2023-08-01T04:48:15.119Z,98474.91
2023-08-01T04:50:42.010Z,98530.13
2023-08-01T04:53:09.088Z,98563.38
2023-08-01T04:55:35.886Z,98533.25
2023-08-01T04:58:02.889Z,98495.38
2023-08-01T05:00:29.679Z,98541.59
2023-08-01T05:02:56.602Z,98345.41
2023-08-01T05:05:23.352Z,98519.03
2023-08-01T05:07:50.057Z,98562.09
2023-08-01T05:10:17.780Z,98566.88
2023-08-01T05:12:44.854Z,98551.53
2023-08-01T05:15:12.045Z,98440.66
2023-08-01T05:17:38.850Z,98486.16
2023-08-01T05:20:06.527Z,98554.22
2023-08-01T05:22:33.343Z,98554.81
2023-08-01T05:25:00.172Z,98468.00
2023-08-01T05:27:26.972Z,98452.25
2023-08-01T05:29:53.907Z,98539.53
2023-08-01T05:32:20.892Z,98558.03
2023-08-01T05:34:47.749Z,98535.91
2023-08-01T05:37:14.558Z,98550.53
2023-08-01T05:39:41.273Z,98479.19
2023-08-01T05:42:10.564Z,98533.41
2023-08-01T05:44:37.536Z,98523.56
2023-08-01T05:47:04.593Z,98473.47
2023-08-01T05:49:31.546Z,98475.53
2023-08-01T05:51:58.329Z,98510.69
2023-08-01T05:54:25.041Z,98550.09
2023-08-01T05:56:52.195Z,98477.91
2023-08-01T05:59:19.019Z,98412.66
2023-08-01T06:01:45.947Z,98478.94
2023-08-01T06:04:13.102Z,98467.31
2023-08-01T06:06:40.308Z,98549.50
2023-08-01T06:09:07.363Z,98549.50
2023-08-01T06:11:34.777Z,98543.66
2023-08-01T06:14:02.089Z,98517.38
2023-08-01T06:16:28.976Z,98551.13
2023-08-01T06:18:55.736Z,98496.56
2023-08-01T06:21:22.672Z,98498.13
2023-08-01T06:23:49.401Z,98437.75
2023-08-01T06:26:18.934Z,98538.31
2023-08-01T06:28:45.709Z,98544.56
2023-08-01T06:31:12.596Z,98417.44
2023-08-01T06:33:39.464Z,98553.19
2023-08-01T06:36:06.717Z,98378.81
2023-08-01T06:38:33.543Z,98457.63
2023-08-01T06:41:00.299Z,98510.44
2023-08-01T06:43:27.102Z,98543.31
2023-08-01T06:45:53.865Z,98452.78
2023-08-01T06:48:21.113Z,98518.53
2023-08-01T06:50:47.826Z,98534.38
2023-08-01T06:53:14.781Z,98538.69
2023-08-01T06:55:41.543Z,98459.47
2023-08-01T06:58:08.397Z,98549.94
2023-08-01T07:00:35.288Z,98546.94
2023-08-01T07:03:02.266Z,98557.31
2023-08-01T07:05:29.358Z,98542.69
2023-08-01T07:07:57.439Z,98487.41
2023-08-01T07:10:24.178Z,98498.47
2023-08-01T07:12:51.150Z,98522.34
2023-08-01T07:15:18.043Z,98535.03
2023-08-01T07:17:44.790Z,98548.13
2023-08-01T07:20:12.177Z,98550.41
2023-08-01T07:22:39.036Z,98387.91
2023-08-01T07:25:06.355Z,98399.53
2023-08-01T07:27:33.132Z,98540.47
2023-08-01T07:29:59.868Z,98491.38
2023-08-01T07:32:26.766Z,98540.34
2023-08-01T07:34:55.505Z,98521.94
2023-08-01T07:37:22.575Z,98473.03
2023-08-01T07:39:51.127Z,98537.03
2023-08-01T07:42:17.970Z,98536.97
2023-08-01T07:44:44.802Z,98378.03
2023-08-01T07:47:11.572Z,98541.63
2023-08-01T07:49:38.487Z,98541.88
2023-08-01T07:52:05.853Z,98540.81
2023-08-01T07:54:32.614Z,98482.56
2023-08-01T07:56:59.578Z,98534.50
2023-08-01T07:59:26.549Z,98436.84
2023-08-01T08:01:54.137Z,98532.53
2023-08-01T08:04:21.041Z,98496.53
2023-08-01T08:06:48.147Z,98509.78
2023-08-01T08:09:14.863Z,98537.63
2023-08-01T08:11:41.591Z,98525.16
2023-08-01T08:14:08.721Z,98483.47
2023-08-01T08:16:35.717Z,98509.47
2023-08-01T08:19:02.610Z,98427.53
2023-08-01T08:21:29.403Z,98528.13
2023-08-01T08:23:56.644Z,98508.47
2023-08-01T08:26:24.866Z,98527.59
2023-08-01T08:28:51.717Z,98374.47
2023-08-01T08:31:18.532Z,98540.13
2023-08-01T08:33:45.555Z,98522.13
2023-08-01T08:36:12.407Z,98468.34
2023-08-01T08:38:39.152Z,98477.69
2023-08-01T08:41:20.713Z,98519.34
2023-08-01T08:43:49.625Z,98493.25
2023-08-01T08:46:17.898Z,98514.28
2023-08-01T08:48:46.919Z,98446.78
2023-08-01T08:51:14.051Z,98496.31
2023-08-01T08:53:41.684Z,98511.91
2023-08-01T08:56:09.872Z,98514.13
2023-08-01T08:58:40.140Z,98513.97
2023-08-01T09:01:07.911Z,98519.50
2023-08-01T09:03:34.929Z,98436.88
2023-08-01T09:06:08.517Z,98411.38
2023-08-01T09:08:37.760Z,98470.84
2023-08-01T09:11:05.583Z,98504.59
2023-08-01T09:13:32.710Z,98500.88
2023-08-01T09:16:03.104Z,98527.97
2023-08-01T09:18:29.893Z,98489.16
2023-08-01T09:21:03.426Z,98465.09
2023-08-01T09:23:31.865Z,98398.28
2023-08-01T09:26:00.443Z,98479.66
2023-08-01T09:28:28.255Z,98476.03
2023-08-01T09:30:56.935Z,98408.91
2023-08-01T09:33:24.230Z,98345.44
2023-08-01T09:35:51.552Z,98479.66
2023-08-01T09:38:19.117Z,98424.28
2023-08-01T09:40:47.034Z,98400.28
2023-08-01T09:43:14.624Z,98447.78
2023-08-01T09:45:54.698Z,98470.06
2023-08-01T09:48:27.142Z,98445.69
2023-08-01T09:51:06.896Z,98488.50
2023-08-01T09:53:34.138Z,98435.50
2023-08-01T09:56:03.093Z,98459.63
2023-08-01T09:58:35.309Z,98432.09
2023-08-01T10:01:05.334Z,98329.94
2023-08-01T10:03:32.518Z,98453.31
2023-08-01T10:06:00.243Z,98423.50
2023-08-01T10:08:28.955Z,98452.38
2023-08-01T10:10:58.201Z,98453.25
2023-08-01T10:13:27.651Z,98448.03
2023-08-01T10:15:55.117Z,98394.94
2023-08-01T10:18:22.285Z,98385.34
2023-08-01T10:20:50.128Z,98427.66
2023-08-01T10:23:17.999Z,98272.22
2023-08-01T10:25:45.093Z,98443.31
2023-08-01T10:28:12.040Z,98438.50
2023-08-01T10:30:38.945Z,98437.69
2023-08-01T10:33:06.800Z,98428.84
2023-08-01T10:35:37.680Z,98350.38
2023-08-01T10:38:06.156Z,98431.78
2023-08-01T10:40:43.912Z,98373.38
2023-08-01T10:43:24.110Z,98403.59
2023-08-01T10:46:05.296Z,98422.19
2023-08-01T10:48:32.634Z,98424.59
2023-08-01T10:50:59.492Z,98369.00
2023-08-01T10:53:26.677Z,98412.88
2023-08-01T10:55:53.712Z,98415.06
2023-08-01T10:58:20.696Z,98413.47
2023-08-01T11:00:47.606Z,98226.13
2023-08-01T11:03:14.551Z,98344.63
2023-08-01T11:05:41.621Z,98414.06
2023-08-01T11:08:08.345Z,98338.56
2023-08-01T11:10:35.342Z,98411.72
2023-08-01T11:13:02.379Z,98421.72
2023-08-01T11:15:29.144Z,98381.97
2023-08-01T11:17:57.137Z,98377.97
2023-08-01T11:20:26.054Z,98305.31
2023-08-01T11:23:02.675Z,98398.72
2023-08-01T11:25:36.781Z,98277.75
2023-08-01T11:28:15.593Z,98336.63
2023-08-01T11:30:43.975Z,98378.56
2023-08-01T11:33:19.338Z,98343.28
2023-08-01T11:35:46.883Z,98325.25
2023-08-01T11:38:13.791Z,98294.50
2023-08-01T11:40:41.234Z,98379.34
2023-08-01T11:43:08.009Z,98349.22
2023-08-01T11:45:35.049Z,98367.19
2023-08-01T11:48:02.935Z,98361.84
2023-08-01T11:50:29.788Z,98368.88
2023-08-01T11:52:56.701Z,98361.59
2023-08-01T11:55:27.013Z,98211.09
2023-08-01T11:57:55.669Z,98358.53
2023-08-01T12:00:24.135Z,98349.75
2023-08-01T12:02:50.920Z,98356.78
2023-08-01T12:05:25.490Z,98315.16
2023-08-01T12:07:52.386Z,98346.69
2023-08-01T12:10:19.597Z,98336.44
2023-08-01T12:12:50.028Z,98320.78
2023-08-01T12:15:16.858Z,98341.59
2023-08-01T12:17:43.729Z,98156.22
2023-08-01T12:20:10.832Z,98202.84
2023-08-01T12:22:37.594Z,98240.22
2023-08-01T12:25:04.762Z,98350.16
2023-08-01T12:27:31.541Z,98346.75
2023-08-01T12:29:58.223Z,98340.44
2023-08-01T12:32:25.398Z,98271.31
2023-08-01T12:34:52.133Z,98199.50
2023-08-01T12:37:18.806Z,98305.25
2023-08-01T12:39:45.826Z,98306.22
2023-08-01T12:42:12.651Z,98323.03
2023-08-01T12:44:39.377Z,98252.41
2023-08-01T12:47:09.006Z,98316.69
2023-08-01T12:49:36.136Z,98255.72
2023-08-01T12:52:04.342Z,98333.38
2023-08-01T12:54:31.343Z,98313.81
2023-08-01T12:56:58.353Z,98308.72
2023-08-01T12:59:25.145Z,98293.13
2023-08-01T13:01:51.957Z,98310.34
2023-08-01T13:04:18.687Z,98292.28
2023-08-01T13:06:46.125Z,98311.13
2023-08-01T13:09:15.450Z,98292.28
2023-08-01T13:11:45.021Z,98197.22
2023-08-01T13:14:11.722Z,98309.31
2023-08-01T13:16:38.838Z,98284.06
2023-08-01T13:19:05.679Z,98275.47
2023-08-01T13:21:32.437Z,98287.63
2023-08-01T13:23:59.239Z,98247.41
2023-08-01T13:26:26.282Z,98293.31
2023-08-01T13:28:52.925Z,98298.38
2023-08-01T13:31:19.820Z,98298.59
2023-08-01T13:33:46.573Z,98173.94
2023-08-01T13:36:13.201Z,98270.19
2023-08-01T13:38:40.058Z,98322.88
2023-08-01T13:41:06.831Z,98296.84
2023-08-01T13:43:34.107Z,98298.44
2023-08-01T13:46:02.194Z,98257.41
2023-08-01T13:48:30.672Z,98148.94
2023-08-01T13:50:59.986Z,98301.56
2023-08-01T13:53:26.916Z,98129.22
2023-08-01T13:55:55.324Z,98210.44
2023-08-01T13:58:21.965Z,98204.84
2023-08-01T14:00:48.922Z,98283.06
2023-08-01T14:03:16.093Z,98289.47
2023-08-01T14:05:43.009Z,98282.69
2023-08-01T14:08:09.764Z,98228.25
2023-08-01T14:10:36.418Z,98271.00
2023-08-01T14:13:03.129Z,98220.91
2023-08-01T14:15:29.951Z,98248.25
2023-08-01T14:17:56.808Z,98262.13
2023-08-01T14:20:23.558Z,98264.69
2023-08-01T14:22:50.702Z,98249.31
2023-08-01T14:25:17.470Z,98239.97
2023-08-01T14:27:44.452Z,98197.06
2023-08-01T14:30:11.881Z,98265.47
2023-08-01T14:32:39.990Z,98262.13
2023-08-01T14:35:07.295Z,98258.72
2023-08-01T14:37:34.281Z,98247.09
2023-08-01T14:40:01.202Z,98130.53
2023-08-01T14:42:27.935Z,98245.66
2023-08-01T14:44:55.617Z,98228.47
2023-08-01T14:47:22.884Z,98198.38
2023-08-01T14:49:50.306Z,98239.94
2023-08-01T14:52:17.115Z,98236.22
2023-08-01T14:54:44.034Z,98125.97
2023-08-01T14:57:10.828Z,98213.78
2023-08-01T14:59:37.865Z,98234.59
2023-08-01T15:02:05.692Z,98236.47
2023-08-01T15:04:33.446Z,98143.75
2023-08-01T15:07:02.595Z,98165.97
2023-08-01T15:09:29.386Z,98235.88
2023-08-01T15:11:56.257Z,98157.75
2023-08-01T15:14:24.164Z,98204.38
2023-08-01T15:16:50.907Z,98132.00
2023-08-01T15:19:17.658Z,98221.91
2023-08-01T15:21:46.412Z,98130.94
2023-08-01T15:24:13.140Z,98164.75
2023-08-01T15:26:40.143Z,98224.47
2023-08-01T15:29:07.653Z,98146.81
2023-08-01T15:31:35.946Z,98197.97
2023-08-01T15:34:02.893Z,98217.06
2023-08-01T15:36:30.276Z,98229.34
2023-08-01T15:39:00.664Z,98223.91
2023-08-01T15:41:28.000Z,98196.47
2023-08-01T15:43:55.477Z,98112.53
2023-08-01T15:46:22.324Z,98219.84
2023-08-01T15:48:50.058Z,98196.84
2023-08-01T15:51:17.049Z,98114.97
2023-08-01T15:53:44.094Z,98199.00
2023-08-01T15:56:11.964Z,98219.97
2023-08-01T15:58:40.698Z,98219.38
2023-08-01T16:01:11.359Z,98165.06
2023-08-01T16:03:43.321Z,98204.47
2023-08-01T16:06:11.194Z,98128.03
2023-08-01T16:08:38.714Z,98214.66
2023-08-01T16:11:05.630Z,98092.56
2023-08-01T16:13:32.648Z,98172.00
2023-08-01T16:16:00.766Z,98207.88
2023-08-01T16:18:27.629Z,98209.38
2023-08-01T16:20:54.513Z,98142.13
2023-08-01T16:23:22.471Z,98138.53
2023-08-01T16:25:49.345Z,98181.22
2023-08-01T16:28:16.153Z,98166.19
2023-08-01T16:30:42.980Z,98225.13
2023-08-01T16:33:10.968Z,98082.34
2023-08-01T16:35:38.300Z,98208.56
2023-08-01T16:38:05.129Z,98190.22
2023-08-01T16:40:32.330Z,98211.53
2023-08-01T16:42:59.387Z,98194.25
2023-08-01T16:45:33.227Z,98214.63
2023-08-01T16:48:01.203Z,98213.69
2023-08-01T16:50:28.143Z,98212.53
2023-08-01T16:52:55.109Z,98209.28
2023-08-01T16:55:21.914Z,98212.81
2023-08-01T16:57:48.921Z,98212.66
2023-08-01T17:00:16.270Z,98218.06
2023-08-01T17:02:43.432Z,98160.19
2023-08-01T17:05:14.206Z,98077.28
2023-08-01T17:07:41.448Z,98222.44
2023-08-01T17:10:08.701Z,98190.28
2023-08-01T17:12:35.824Z,98221.50
2023-08-01T17:15:03.163Z,98207.03
2023-08-01T17:17:30.104Z,98164.75
2023-08-01T17:19:57.400Z,98174.56
2023-08-01T17:22:28.271Z,98224.75
2023-08-01T17:24:55.637Z,98216.41
2023-08-01T17:27:22.518Z,98088.31
2023-08-01T17:29:50.289Z,98222.19
2023-08-01T17:32:19.439Z,98210.38
2023-08-01T17:34:46.648Z,98216.13
2023-08-01T17:37:14.007Z,98175.53
2023-08-01T17:39:41.014Z,98172.56
2023-08-01T17:42:07.957Z,98220.69
2023-08-01T17:44:40.303Z,98196.41
2023-08-01T17:47:08.837Z,98037.38
2023-08-01T17:49:35.911Z,98198.59
2023-08-01T17:52:03.816Z,98159.84
2023-08-01T17:54:30.821Z,98192.16
2023-08-01T17:56:57.888Z,98153.41
2023-08-01T17:59:24.792Z,98187.16
2023-08-01T18:01:54.324Z,98206.41
2023-08-01T18:04:22.365Z,98199.09
2023-08-01T18:06:49.960Z,98154.69
2023-08-01T18:09:19.878Z,98168.13
2023-08-01T18:11:47.317Z,98178.50
2023-08-01T18:14:14.494Z,98119.47
2023-08-01T18:16:41.924Z,98209.84
2023-08-01T18:19:09.508Z,98182.81
2023-08-01T18:21:36.759Z,98215.38
2023-08-01T18:24:03.901Z,98187.53
2023-08-01T18:26:30.925Z,98205.84
2023-08-01T18:28:58.137Z,98213.19
2023-08-01T18:31:25.283Z,98220.56
2023-08-01T18:33:52.516Z,97937.34
2023-08-01T18:36:21.613Z,98200.94
2023-08-01T18:38:50.327Z,98209.00
2023-08-01T18:41:20.363Z,98168.22
2023-08-01T18:43:47.966Z,98210.09
2023-08-01T18:46:15.677Z,98049.50
2023-08-01T18:48:43.797Z,98163.44
2023-08-01T18:51:22.040Z,98208.56
2023-08-01T18:53:49.211Z,98182.75
2023-08-01T18:56:18.341Z,98134.75
2023-08-01T18:58:46.161Z,98209.44
2023-08-01T19:01:13.995Z,98206.19
2023-08-01T19:03:42.855Z,98156.66
2023-08-01T19:06:10.122Z,98205.22
2023-08-01T19:08:37.696Z,98232.34
2023-08-01T19:11:04.942Z,98105.94
2023-08-01T19:13:32.159Z,98189.47
2023-08-01T19:16:00.298Z,98091.72
2023-08-01T19:18:29.720Z,98214.09
2023-08-01T19:20:58.979Z,98004.66
2023-08-01T19:23:26.070Z,98216.56
2023-08-01T19:25:53.531Z,98216.34
2023-08-01T19:28:21.095Z,98186.94
2023-08-01T19:30:49.282Z,98214.75
2023-08-01T19:33:16.392Z,98219.03
2023-08-01T19:35:45.055Z,98097.72
2023-08-01T19:38:12.837Z,98214.56
2023-08-01T19:40:42.955Z,98213.94
2023-08-01T19:43:10.837Z,98229.63
2023-08-01T19:45:39.333Z,98146.31
2023-08-01T19:48:07.471Z,98235.78
2023-08-01T19:50:34.773Z,98228.84
2023-08-01T19:53:01.828Z,98194.53
2023-08-01T19:55:29.043Z,98226.44
2023-08-01T19:57:58.371Z,98112.19
2023-08-01T20:00:26.973Z,98200.03
2023-08-01T20:02:57.787Z,98194.81
2023-08-01T20:05:25.163Z,98231.78
2023-08-01T20:07:52.519Z,98179.09
2023-08-01T20:10:19.742Z,98217.97
2023-08-01T20:12:46.763Z,98035.19
2023-08-01T20:15:13.786Z,98247.69
2023-08-01T20:17:42.078Z,98234.22
2023-08-01T20:20:10.996Z,98118.09
2023-08-01T20:22:38.564Z,98190.91
2023-08-01T20:25:06.870Z,98235.84
2023-08-01T20:27:34.365Z,98185.03
2023-08-01T20:30:01.203Z,98118.75
2023-08-01T20:32:28.295Z,98205.38
2023-08-01T20:34:55.186Z,98185.22
2023-08-01T20:37:22.211Z,98175.47
2023-08-01T20:39:49.159Z,98156.97
2023-08-01T20:42:16.652Z,98226.94
2023-08-01T20:44:43.999Z,98136.25
2023-08-01T20:47:10.980Z,98231.22
2023-08-01T20:49:37.873Z,98241.59
2023-08-01T20:52:05.161Z,98213.16
2023-08-01T20:54:32.085Z,98170.19
2023-08-01T20:56:59.409Z,98234.28
2023-08-01T20:59:26.439Z,98238.81
2023-08-01T21:01:53.169Z,98193.81
2023-08-01T21:04:20.167Z,98254.50
2023-08-01T21:06:47.232Z,98197.28
2023-08-01T21:09:14.290Z,98227.78
2023-08-01T21:11:41.226Z,98227.78
2023-08-01T21:14:08.554Z,98209.69
2023-08-01T21:16:35.503Z,98204.59
2023-08-01T21:19:02.446Z,98161.09
2023-08-01T21:21:29.136Z,98229.63
2023-08-01T21:23:56.043Z,98197.09
2023-08-01T21:26:23.019Z,98106.16
2023-08-01T21:28:49.833Z,98223.31
2023-08-01T21:31:16.712Z,98193.19
2023-08-01T21:33:43.813Z,98143.38
2023-08-01T21:36:10.812Z,98150.91
2023-08-01T21:38:37.517Z,98115.31
2023-08-01T21:41:04.476Z,98072.59
2023-08-01T21:43:31.369Z,98220.06
2023-08-01T21:46:01.419Z,98194.00
2023-08-01T21:48:29.432Z,98210.50
2023-08-01T21:50:56.578Z,98221.09
2023-08-01T21:53:23.468Z,98212.75
2023-08-01T21:55:50.490Z,98216.19
2023-08-01T21:58:17.600Z,98212.53
2023-08-01T22:00:45.065Z,98210.09
2023-08-01T22:03:12.904Z,98209.47
2023-08-01T22:05:40.272Z,98222.31
2023-08-01T22:08:07.982Z,98219.88
2023-08-01T22:10:35.237Z,98210.31
2023-08-01T22:13:02.637Z,98203.81
2023-08-01T22:15:30.083Z,98161.06
2023-08-01T22:17:58.004Z,98215.00
2023-08-01T22:20:24.966Z,98184.28
2023-08-01T22:22:51.670Z,98200.16
2023-08-01T22:25:18.779Z,98174.72
2023-08-01T22:27:45.829Z,98160.25
2023-08-01T22:30:12.739Z,98189.78
2023-08-01T22:32:39.696Z,98176.94
2023-08-01T22:35:07.116Z,98175.31
2023-08-01T22:37:33.927Z,98118.75
2023-08-01T22:40:01.284Z,98122.41
2023-08-01T22:42:28.156Z,98188.75
2023-08-01T22:44:54.785Z,98195.06
2023-08-01T22:47:21.793Z,98131.56
2023-08-01T22:50:03.385Z,98201.56
2023-08-01T22:52:32.462Z,98181.41
2023-08-01T22:54:59.520Z,97975.75
2023-08-01T22:57:26.349Z,98169.94
2023-08-01T22:59:53.205Z,98246.03
2023-08-01T23:02:20.428Z,98165.78
2023-08-01T23:04:48.234Z,98244.78
2023-08-01T23:07:16.164Z,98178.81
2023-08-01T23:09:43.418Z,98239.13
2023-08-01T23:12:10.357Z,98241.97
2023-08-01T23:14:37.204Z,98170.25
2023-08-01T23:17:04.425Z,98239.31
2023-08-01T23:19:31.185Z,98125.88
2023-08-01T23:21:58.031Z,98220.19
2023-08-01T23:24:24.780Z,98226.66
2023-08-01T23:26:51.532Z,98183.50
2023-08-01T23:29:18.374Z,98149.66
2023-08-01T23:31:45.199Z,98253.28
2023-08-01T23:34:11.928Z,98239.84
2023-08-01T23:36:38.750Z,98210.59
2023-08-01T23:39:05.566Z,98235.91
2023-08-01T23:41:32.424Z,98227.34
2023-08-01T23:43:59.182Z,98185.31
2023-08-01T23:46:26.014Z,98235.59
2023-08-01T23:48:52.949Z,98217.28
2023-08-01T23:51:20.716Z,98257.34
2023-08-01T23:53:47.703Z,98217.72
2023-08-01T23:56:14.560Z,98216.91
2023-08-01T23:58:42.006Z,98183.72
